Annapolis, Illinois
Current Conditions -  °F | °C
As of 1:15 PM on Tuesday 21 Oct 2014 (Local Time) from KRSV Reporting Station
Scattered Clouds Scattered Clouds  
Wind Chill: 62°   Ceiling: Unl
Heat Index: 62°   Visibility: 10mi
Dew Point: 43°   Wind: 8mph
Humidity: 50%   Direction: 350°N
Pressure: 30.12"   Gusts: NA
Location:  39.14°N, 87.82°W
Report Text: KRSV 211815Z AUTO 35007KT 10SM SCT045 17/06 A3012 RMK AO2 T01670062
Loading
Personal Weather Stations






























Interactive Weather Map
Tropical Storm Tracking
New forecast layout! Learn more

10-Day Weather Forecast

Advertisements
Track Severe Weather on mobile